createdAt,value
2023-05-16T00:00:38.788Z,16.300
2023-05-16T00:01:39.060Z,16.100
2023-05-16T00:02:38.155Z,15.600
2023-05-16T00:03:39.837Z,16.700
2023-05-16T00:04:38.576Z,16.000
2023-05-16T00:05:39.310Z,14.600
2023-05-16T00:06:38.045Z,14.700
2023-05-16T00:07:38.170Z,15.000
2023-05-16T00:08:37.334Z,15.900
2023-05-16T00:09:37.558Z,15.100
2023-05-16T00:10:38.906Z,15.300
2023-05-16T00:11:38.032Z,14.200
2023-05-16T00:12:38.208Z,15.700
2023-05-16T00:13:37.696Z,15.800
2023-05-16T00:14:39.163Z,15.600
2023-05-16T00:15:37.823Z,15.000
2023-05-16T00:16:39.452Z,15.800
2023-05-16T00:17:37.913Z,15.700
2023-05-16T00:18:38.403Z,15.400
2023-05-16T00:19:38.633Z,15.900
2023-05-16T00:20:38.713Z,15.700
2023-05-16T00:21:38.843Z,14.400
2023-05-16T00:22:38.911Z,15.100
2023-05-16T00:23:39.094Z,15.200
2023-05-16T00:24:37.735Z,15.900
2023-05-16T00:25:39.206Z,16.300
2023-05-16T00:26:37.904Z,15.500
2023-05-16T00:27:39.313Z,16.100
2023-05-16T00:28:38.074Z,14.800
2023-05-16T00:29:38.227Z,14.500
2023-05-16T00:30:39.632Z,16.000
2023-05-16T00:31:38.776Z,15.400
2023-05-16T00:32:38.185Z,15.500
2023-05-16T00:35:37.739Z,15.900
2023-05-16T00:36:39.118Z,16.300
2023-05-16T00:37:37.834Z,14.700
2023-05-16T00:38:39.265Z,17.000
2023-05-16T00:39:38.046Z,16.400
2023-05-16T00:40:39.562Z,15.400
2023-05-16T00:41:39.646Z,16.500
2023-05-16T00:42:38.614Z,16.000
2023-05-16T00:43:38.105Z,16.400
2023-05-16T00:44:37.457Z,16.100
2023-05-16T00:45:38.914Z,15.000
2023-05-16T00:46:39.373Z,15.900
2023-05-16T00:47:39.417Z,16.600
2023-05-16T00:48:39.242Z,16.500
2023-05-16T00:49:39.318Z,16.700
2023-05-16T00:50:39.466Z,15.500
2023-05-16T00:51:38.101Z,15.600
2023-05-16T00:52:37.243Z,15.500
2023-05-16T00:53:37.476Z,16.200
2023-05-16T00:54:38.771Z,15.500
2023-05-16T00:55:38.951Z,16.900
2023-05-16T00:56:39.053Z,15.500
2023-05-16T00:57:39.146Z,16.700
2023-05-16T00:58:37.386Z,16.800
2023-05-16T00:59:37.887Z,16.900
2023-05-16T01:00:39.358Z,17.400
2023-05-16T01:01:38.283Z,16.500
2023-05-16T01:02:38.789Z,16.100
2023-05-16T01:03:40.651Z,15.800
2023-05-16T01:04:38.123Z,15.800
2023-05-16T01:05:37.516Z,18.200
2023-05-16T01:06:38.911Z,16.200
2023-05-16T01:07:39.090Z,16.100
2023-05-16T01:08:39.116Z,16.400
2023-05-16T01:09:37.871Z,16.600
2023-05-16T01:10:39.300Z,17.100
2023-05-16T01:11:38.006Z,18.300
2023-05-16T01:12:38.223Z,17.100
2023-05-16T01:13:37.373Z,17.000
2023-05-16T01:14:37.640Z,17.500
2023-05-16T01:15:38.769Z,16.800
2023-05-16T01:16:39.270Z,16.800
2023-05-16T01:17:37.803Z,18.400
2023-05-16T01:18:39.382Z,18.500
2023-05-16T01:19:39.166Z,17.700
2023-05-16T01:22:38.037Z,16.500
2023-05-16T01:23:39.437Z,18.300
2023-05-16T01:24:38.206Z,19.300
2023-05-16T01:25:37.532Z,17.300
2023-05-16T01:26:38.747Z,16.600
2023-05-16T01:27:38.966Z,17.200
2023-05-16T01:28:38.915Z,17.300
2023-05-16T01:29:39.155Z,16.800
2023-05-16T01:30:37.920Z,17.500
2023-05-16T01:31:39.369Z,17.900
2023-05-16T01:32:39.660Z,17.400
2023-05-16T01:33:37.975Z,17.500
2023-05-16T01:34:38.208Z,17.800
2023-05-16T01:35:37.443Z,17.400
2023-05-16T01:36:39.787Z,15.700
2023-05-16T01:39:38.969Z,17.800
2023-05-16T01:40:39.040Z,17.300
2023-05-16T01:41:39.126Z,16.700
2023-05-16T01:42:37.892Z,16.500
2023-05-16T01:43:39.315Z,17.300
2023-05-16T01:44:38.081Z,17.500
2023-05-16T01:45:39.465Z,16.300
2023-05-16T01:46:38.392Z,17.500
2023-05-16T01:47:37.700Z,16.300
2023-05-16T01:48:38.148Z,17.200
2023-05-16T01:49:37.462Z,18.200
2023-05-16T01:50:38.868Z,17.400
2023-05-16T01:51:38.964Z,17.600
2023-05-16T01:52:39.093Z,17.200
2023-05-16T01:53:37.850Z,18.600
2023-05-16T01:54:39.274Z,17.300
2023-05-16T01:55:38.010Z,17.200
2023-05-16T01:56:38.279Z,18.300
2023-05-16T01:57:37.482Z,17.800
2023-05-16T01:58:39.600Z,18.900
2023-05-16T01:59:38.457Z,18.300
2023-05-16T02:00:37.712Z,18.400
2023-05-16T02:01:39.527Z,17.800
2023-05-16T02:03:37.960Z,17.200
2023-05-16T02:06:38.113Z,18.100
2023-05-16T02:07:37.239Z,19.300
2023-05-16T02:08:37.435Z,18.200
2023-05-16T02:09:38.357Z,18.500
2023-05-16T02:10:37.547Z,18.900
2023-05-16T02:11:38.864Z,20.100
2023-05-16T02:12:38.927Z,18.800
2023-05-16T02:13:39.024Z,18.800
2023-05-16T02:14:39.095Z,18.200
2023-05-16T02:15:37.914Z,18.600
2023-05-16T02:16:39.653Z,19.900
2023-05-16T02:17:38.172Z,19.900
2023-05-16T02:18:37.931Z,19.400
2023-05-16T02:19:39.621Z,18.400
2023-05-16T02:20:37.979Z,17.600
2023-05-16T02:21:38.251Z,18.700
2023-05-16T02:22:37.566Z,18.500
2023-05-16T02:23:39.072Z,20.400
2023-05-16T02:24:40.041Z,19.200
2023-05-16T02:25:39.220Z,17.500
2023-05-16T02:27:39.346Z,17.500
2023-05-16T02:28:38.094Z,17.200
2023-05-16T02:29:37.367Z,18.000
2023-05-16T02:30:37.732Z,17.800
2023-05-16T02:31:38.733Z,18.100
2023-05-16T02:32:38.444Z,19.200
2023-05-16T02:33:38.915Z,17.700
2023-05-16T02:34:39.021Z,17.500
2023-05-16T02:35:37.769Z,17.200
2023-05-16T02:36:39.193Z,16.700
2023-05-16T02:37:38.083Z,16.600
2023-05-16T02:38:37.329Z,16.500
2023-05-16T02:39:38.197Z,16.200
2023-05-16T02:40:37.447Z,17.400
2023-05-16T02:41:37.651Z,16.600
2023-05-16T02:42:38.767Z,16.900
2023-05-16T02:43:38.847Z,18.000
2023-05-16T02:44:39.010Z,16.600
2023-05-16T02:45:39.095Z,18.300
2023-05-16T02:46:38.113Z,18.300
2023-05-16T02:47:38.082Z,17.700
2023-05-16T02:48:39.345Z,17.800
2023-05-16T02:49:38.120Z,17.800
2023-05-16T02:50:37.260Z,17.000
2023-05-16T02:51:37.537Z,18.100
2023-05-16T02:52:39.635Z,15.900
2023-05-16T02:53:39.764Z,15.700
2023-05-16T02:54:39.033Z,16.200
2023-05-16T02:55:38.825Z,17.100
2023-05-16T02:56:39.073Z,15.500
2023-05-16T02:57:39.199Z,16.600
2023-05-16T02:58:37.851Z,16.600
2023-05-16T02:59:39.287Z,17.600
2023-05-16T03:00:38.068Z,16.700
2023-05-16T03:01:38.601Z,15.100
2023-05-16T03:02:38.479Z,15.800
2023-05-16T03:03:40.381Z,15.600
2023-05-16T03:04:38.712Z,15.700
2023-05-16T03:05:39.550Z,19.100
2023-05-16T03:06:37.713Z,18.900
2023-05-16T03:07:39.018Z,17.400
2023-05-16T03:09:39.234Z,18.700
2023-05-16T03:10:37.930Z,17.700
2023-05-16T03:11:41.526Z,17.900
2023-05-16T03:14:39.617Z,18.800
2023-05-16T03:15:38.772Z,18.500
2023-05-16T03:16:39.070Z,18.000
2023-05-16T03:17:37.943Z,17.700
2023-05-16T03:18:37.965Z,18.500
2023-05-16T03:19:39.241Z,18.600
2023-05-16T03:20:37.900Z,18.700
2023-05-16T03:21:39.363Z,17.300
2023-05-16T03:22:38.078Z,19.400
2023-05-16T03:23:37.259Z,18.900
2023-05-16T03:24:38.492Z,18.400
2023-05-16T03:25:39.678Z,17.000
2023-05-16T03:26:38.811Z,19.100
2023-05-16T03:27:38.855Z,18.800
2023-05-16T03:28:37.648Z,18.100
2023-05-16T03:29:39.067Z,17.800
2023-05-16T03:30:37.782Z,17.700
2023-05-16T03:31:39.479Z,17.000
2023-05-16T03:32:39.570Z,18.300
2023-05-16T03:33:37.856Z,17.000
2023-05-16T03:34:38.115Z,17.500
2023-05-16T03:35:39.617Z,17.700
2023-05-16T03:36:39.702Z,18.100
2023-05-16T03:37:39.771Z,17.200
2023-05-16T03:38:38.771Z,17.900
2023-05-16T03:39:38.918Z,18.900
2023-05-16T03:40:38.945Z,18.500
2023-05-16T03:41:39.120Z,18.600
2023-05-16T03:42:37.808Z,16.800
2023-05-16T03:43:39.278Z,17.500
2023-05-16T03:44:37.990Z,17.400
2023-05-16T03:45:39.082Z,17.100
2023-05-16T03:46:38.388Z,17.800
2023-05-16T03:47:38.348Z,19.500
2023-05-16T03:51:37.664Z,18.400
2023-05-16T03:52:39.080Z,18.800
2023-05-16T03:53:37.238Z,18.400
2023-05-16T03:54:37.944Z,19.000
2023-05-16T03:55:38.486Z,18.500
2023-05-16T03:56:38.310Z,19.300
2023-05-16T03:57:37.466Z,18.000
2023-05-16T03:58:38.408Z,18.000
2023-05-16T03:59:37.658Z,19.100
2023-05-16T04:00:38.808Z,16.600
2023-05-16T04:01:39.078Z,17.100
2023-05-16T04:03:38.013Z,18.200
2023-05-16T04:04:39.240Z,17.500
2023-05-16T04:05:38.865Z,17.500
2023-05-16T04:06:39.310Z,18.300
2023-05-16T04:07:37.834Z,18.600
2023-05-16T04:08:38.025Z,17.300
2023-05-16T04:09:38.254Z,18.400
2023-05-16T04:10:37.421Z,17.800
2023-05-16T04:11:38.095Z,17.100
2023-05-16T04:12:37.659Z,17.200
2023-05-16T04:13:39.469Z,16.700
2023-05-16T04:14:37.741Z,17.700
2023-05-16T04:15:39.207Z,17.500
2023-05-16T04:16:38.018Z,17.800
2023-05-16T04:17:37.392Z,17.600
2023-05-16T04:18:38.215Z,17.600
2023-05-16T04:21:38.183Z,18.100
2023-05-16T04:22:37.542Z,18.000
2023-05-16T04:23:37.731Z,19.500
2023-05-16T04:24:39.150Z,17.100
2023-05-16T04:25:38.114Z,18.000
2023-05-16T04:26:37.835Z,18.700
2023-05-16T04:27:39.303Z,18.900
2023-05-16T04:28:38.062Z,18.700
2023-05-16T04:30:37.526Z,16.400
2023-05-16T04:31:39.991Z,17.600
2023-05-16T04:32:37.781Z,17.600
2023-05-16T04:33:38.866Z,17.900
2023-05-16T04:34:41.997Z,17.500
2023-05-16T04:37:37.889Z,17.400
2023-05-16T04:38:39.320Z,18.600
2023-05-16T04:39:38.030Z,20.100
2023-05-16T04:40:38.171Z,19.000
2023-05-16T04:42:39.655Z,17.300
2023-05-16T04:43:39.752Z,16.500
2023-05-16T04:44:39.825Z,17.800
2023-05-16T04:45:42.551Z,16.600
2023-05-16T04:48:39.166Z,17.600
2023-05-16T04:49:37.934Z,17.200
2023-05-16T04:50:39.372Z,16.900
2023-05-16T04:51:38.170Z,17.400
2023-05-16T04:52:37.344Z,18.100
2023-05-16T04:53:37.600Z,19.600
2023-05-16T04:54:39.706Z,17.600
2023-05-16T04:55:39.832Z,17.300
2023-05-16T04:56:38.912Z,18.300
2023-05-16T04:57:39.122Z,18.000
2023-05-16T04:58:37.706Z,18.900
2023-05-16T04:59:37.835Z,19.100
2023-05-16T05:00:39.268Z,17.600
2023-05-16T05:01:38.191Z,18.900
2023-05-16T05:02:38.570Z,17.800
2023-05-16T05:03:37.954Z,18.500
2023-05-16T05:04:39.766Z,19.900
2023-05-16T05:05:39.207Z,19.800
2023-05-16T05:06:37.481Z,19.800
2023-05-16T05:07:37.679Z,19.200
2023-05-16T05:08:39.346Z,18.200
2023-05-16T05:09:37.833Z,19.400
2023-05-16T05:10:39.203Z,19.300
2023-05-16T05:11:38.005Z,20.500
2023-05-16T05:14:38.226Z,20.400
2023-05-16T05:15:39.713Z,20.600
2023-05-16T05:17:40.767Z,20.100
2023-05-16T05:18:39.135Z,20.200
2023-05-16T05:19:37.868Z,21.800
2023-05-16T05:20:37.712Z,20.500
2023-05-16T05:24:38.093Z,22.000
2023-05-16T05:25:40.586Z,21.700
2023-05-16T05:27:38.393Z,20.000
2023-05-16T05:28:37.561Z,21.500
2023-05-16T05:29:37.657Z,22.100
2023-05-16T05:30:37.882Z,22.700
2023-05-16T05:31:38.198Z,22.100
2023-05-16T05:32:38.222Z,22.200
2023-05-16T05:33:37.861Z,21.500
2023-05-16T05:34:39.375Z,21.800
2023-05-16T05:35:39.479Z,22.400
2023-05-16T05:36:38.168Z,22.200
2023-05-16T05:37:37.290Z,21.600
2023-05-16T05:38:37.500Z,21.400
2023-05-16T05:39:37.822Z,21.100
2023-05-16T05:40:38.879Z,20.800
2023-05-16T05:41:39.208Z,20.900
2023-05-16T05:42:37.710Z,21.800
2023-05-16T05:43:39.129Z,22.100
2023-05-16T05:44:38.007Z,19.900
2023-05-16T05:45:39.432Z,20.500
2023-05-16T05:46:38.405Z,20.400
2023-05-16T05:47:38.484Z,21.200
2023-05-16T05:48:39.632Z,21.100
2023-05-16T05:49:39.711Z,21.300
2023-05-16T05:50:39.826Z,22.700
2023-05-16T05:51:38.849Z,22.600
2023-05-16T05:52:38.982Z,22.600
2023-05-16T05:53:39.129Z,21.800
2023-05-16T05:54:37.797Z,21.700
2023-05-16T05:55:39.237Z,22.100
2023-05-16T05:56:37.979Z,21.800
2023-05-16T05:57:38.286Z,21.500
2023-05-16T05:58:38.138Z,20.800
2023-05-16T05:59:37.392Z,22.600
2023-05-16T06:00:38.337Z,22.500
2023-05-16T06:03:39.289Z,21.600
2023-05-16T06:04:37.760Z,22.400
2023-05-16T06:05:39.664Z,21.500
2023-05-16T06:06:39.276Z,20.800
2023-05-16T06:07:37.988Z,21.300
2023-05-16T06:08:39.669Z,21.800
2023-05-16T06:09:37.832Z,20.600
2023-05-16T06:10:39.704Z,22.700
2023-05-16T06:11:39.765Z,21.000
2023-05-16T06:12:39.851Z,19.600
2023-05-16T06:13:38.960Z,21.900
2023-05-16T06:14:39.040Z,21.000
2023-05-16T06:15:39.177Z,21.500
2023-05-16T06:16:38.165Z,20.700
2023-05-16T06:18:37.801Z,19.900
2023-05-16T06:19:39.670Z,19.500
2023-05-16T06:20:37.981Z,20.200
2023-05-16T06:21:38.227Z,20.400
2023-05-16T06:22:37.430Z,19.600
2023-05-16T06:23:37.606Z,19.200
2023-05-16T06:24:37.976Z,18.700
2023-05-16T06:25:38.635Z,18.200
2023-05-16T06:26:39.794Z,17.900
2023-05-16T06:27:38.942Z,18.000
2023-05-16T06:28:39.058Z,19.000
2023-05-16T06:29:37.324Z,18.200
2023-05-16T06:30:37.585Z,17.800
2023-05-16T06:31:38.133Z,18.400
2023-05-16T06:32:37.506Z,17.400
2023-05-16T06:33:37.942Z,18.400
2023-05-16T06:34:38.184Z,18.600
2023-05-16T06:35:37.623Z,20.000
2023-05-16T06:36:37.755Z,17.600
2023-05-16T06:37:41.141Z,18.300
2023-05-16T06:38:37.979Z,18.300
2023-05-16T06:39:38.171Z,18.000
2023-05-16T06:40:37.553Z,16.500
2023-05-16T06:41:38.374Z,17.700
2023-05-16T06:42:38.724Z,17.600
2023-05-16T06:44:37.917Z,16.500
2023-05-16T06:45:39.162Z,17.000
2023-05-16T06:46:38.527Z,17.700
2023-05-16T06:47:39.560Z,17.000
2023-05-16T06:48:38.215Z,18.600
2023-05-16T06:49:38.089Z,18.500
2023-05-16T06:51:38.034Z,18.900
2023-05-16T06:52:38.550Z,16.800
2023-05-16T06:53:38.582Z,17.000
2023-05-16T06:54:38.636Z,17.300
2023-05-16T06:55:40.072Z,16.500
2023-05-16T06:56:37.824Z,16.900
2023-05-16T06:57:39.251Z,16.700
2023-05-16T06:58:37.932Z,17.100
2023-05-16T06:59:40.049Z,16.600
2023-05-16T07:00:39.426Z,17.000
2023-05-16T07:01:38.374Z,17.500
2023-05-16T07:02:40.235Z,17.200
2023-05-16T07:03:40.839Z,17.300
2023-05-16T07:05:39.915Z,15.800
2023-05-16T07:06:38.454Z,17.000
2023-05-16T07:07:37.885Z,16.600
2023-05-16T07:08:42.210Z,18.300
2023-05-16T07:09:40.918Z,15.200
2023-05-16T07:10:42.370Z,16.700
2023-05-16T07:11:41.082Z,16.100
2023-05-16T07:12:41.238Z,17.400
2023-05-16T07:13:44.317Z,17.100
2023-05-16T07:15:41.969Z,17.500
2023-05-16T07:16:41.947Z,16.200
2023-05-16T07:17:40.856Z,16.700
2023-05-16T07:18:43.463Z,17.600
2023-05-16T07:19:41.058Z,17.800
2023-05-16T07:20:40.983Z,18.400
2023-05-16T07:21:42.499Z,17.300
2023-05-16T07:22:41.174Z,17.200
2023-05-16T07:23:41.243Z,16.100
2023-05-16T07:26:38.239Z,16.200
2023-05-16T07:27:37.926Z,17.600
2023-05-16T07:28:38.440Z,16.900
2023-05-16T07:29:37.991Z,18.300
2023-05-16T07:30:39.412Z,17.400
2023-05-16T07:31:38.162Z,17.000
2023-05-16T07:32:38.233Z,17.400
2023-05-16T07:33:38.237Z,16.700
2023-05-16T07:34:38.342Z,18.500
2023-05-16T07:35:40.466Z,17.500
2023-05-16T07:36:38.601Z,18.200
2023-05-16T07:37:40.703Z,18.900
2023-05-16T07:38:39.107Z,16.600
2023-05-16T07:39:38.171Z,17.400
2023-05-16T07:40:37.978Z,16.800
2023-05-16T07:41:39.425Z,17.700
2023-05-16T07:43:38.493Z,16.700
2023-05-16T07:44:38.151Z,16.000
2023-05-16T07:45:38.236Z,16.900
2023-05-16T07:46:38.331Z,15.900
2023-05-16T07:47:38.960Z,16.700
2023-05-16T07:48:40.100Z,16.600
2023-05-16T07:49:37.862Z,16.700
2023-05-16T07:50:40.203Z,16.800
2023-05-16T07:51:38.129Z,17.300
2023-05-16T07:52:38.159Z,16.500
2023-05-16T07:53:39.719Z,17.400
2023-05-16T07:54:39.440Z,15.400
2023-05-16T07:56:40.686Z,16.500
2023-05-16T07:57:40.914Z,15.900
2023-05-16T07:58:39.873Z,16.600
2023-05-16T07:59:40.386Z,17.000
2023-05-16T08:00:39.410Z,16.000
2023-05-16T08:01:38.240Z,16.500
2023-05-16T08:02:38.722Z,16.000
2023-05-16T08:03:38.871Z,15.300
2023-05-16T08:04:37.817Z,15.700
2023-05-16T08:06:37.855Z,15.800
2023-05-16T08:07:40.015Z,16.000
2023-05-16T08:08:38.079Z,17.400
2023-05-16T08:09:38.278Z,15.000
2023-05-16T08:10:40.391Z,15.100
2023-05-16T08:11:38.457Z,14.600
2023-05-16T08:12:40.549Z,16.100
2023-05-16T08:13:40.628Z,16.100
2023-05-16T08:14:40.820Z,17.400
2023-05-16T08:15:40.910Z,16.100
2023-05-16T08:16:38.319Z,15.300
2023-05-16T08:17:40.880Z,16.400
2023-05-16T08:18:40.346Z,16.600
2023-05-16T08:20:37.661Z,18.300
2023-05-16T08:21:39.506Z,17.000
2023-05-16T08:22:40.648Z,17.600
2023-05-16T08:23:40.743Z,17.600
2023-05-16T08:24:40.841Z,16.900
2023-05-16T08:25:39.978Z,17.100
2023-05-16T08:26:38.052Z,16.600
2023-05-16T08:27:38.524Z,16.800
2023-05-16T08:29:37.697Z,19.200
2023-05-16T08:30:39.350Z,19.000
2023-05-16T08:31:37.755Z,16.800
2023-05-16T08:32:38.754Z,18.000
2023-05-16T08:33:40.061Z,16.400
2023-05-16T08:34:37.986Z,16.500
2023-05-16T08:35:39.269Z,17.300
2023-05-16T08:36:38.065Z,17.400
2023-05-16T08:37:38.165Z,16.900
2023-05-16T08:38:38.205Z,17.000
2023-05-16T08:39:38.401Z,17.100
2023-05-16T08:40:38.433Z,17.900
2023-05-16T08:41:37.924Z,18.100
2023-05-16T08:42:39.746Z,17.700
2023-05-16T08:43:39.846Z,19.300
2023-05-16T08:44:39.990Z,19.200
2023-05-16T08:45:40.071Z,17.300
2023-05-16T08:46:38.356Z,19.700
2023-05-16T08:47:38.344Z,19.800
2023-05-16T08:48:38.510Z,17.800
2023-05-16T08:49:40.404Z,19.600
2023-05-16T08:50:38.526Z,19.800
2023-05-16T08:51:39.686Z,19.200
2023-05-16T08:52:40.808Z,20.600
2023-05-16T08:53:41.273Z,21.100
2023-05-16T08:54:38.031Z,20.900
2023-05-16T08:55:40.054Z,20.400
2023-05-16T08:56:37.448Z,21.300
2023-05-16T08:58:38.363Z,21.500
2023-05-16T08:59:37.859Z,21.400
2023-05-16T09:00:39.913Z,20.800
2023-05-16T09:01:37.998Z,21.400
2023-05-16T09:02:38.057Z,20.100
2023-05-16T09:03:38.207Z,21.100
2023-05-16T09:04:38.340Z,21.000
2023-05-16T09:05:38.444Z,19.800
2023-05-16T09:06:38.998Z,19.700
2023-05-16T09:07:39.367Z,21.000
2023-05-16T09:08:37.910Z,20.600
2023-05-16T09:09:39.768Z,20.400
2023-05-16T09:10:40.765Z,21.100
2023-05-16T09:11:44.027Z,21.100
2023-05-16T09:12:39.918Z,20.300
2023-05-16T09:13:40.087Z,22.100
2023-05-16T09:14:38.156Z,22.100
2023-05-16T09:15:38.347Z,20.700
2023-05-16T09:16:38.708Z,20.600
2023-05-16T09:17:49.169Z,19.600
2023-05-16T09:20:37.844Z,21.400
2023-05-16T09:21:39.884Z,21.500
2023-05-16T09:22:40.011Z,19.400
2023-05-16T09:23:42.529Z,20.600
2023-05-16T09:24:40.229Z,18.600
2023-05-16T09:25:43.411Z,19.600
2023-05-16T09:26:38.635Z,17.700
2023-05-16T09:27:40.450Z,17.000
2023-05-16T09:28:37.893Z,15.000
2023-05-16T09:29:42.797Z,15.800
2023-05-16T09:30:40.819Z,15.900
2023-05-16T09:31:40.120Z,14.400
2023-05-16T09:32:38.227Z,14.200
2023-05-16T09:34:38.283Z,15.900
2023-05-16T09:35:51.738Z,17.000
2023-05-16T09:37:38.558Z,14.300
2023-05-16T09:38:39.958Z,14.500
2023-05-16T09:39:40.825Z,14.200
2023-05-16T09:40:39.968Z,15.500
2023-05-16T09:41:40.084Z,14.900
2023-05-16T09:42:38.129Z,14.700
2023-05-16T09:43:41.788Z,14.700
2023-05-16T09:44:37.521Z,14.700
2023-05-16T09:47:39.824Z,15.200
2023-05-16T09:48:40.864Z,14.500
2023-05-16T09:49:39.915Z,15.100
2023-05-16T09:50:40.129Z,15.000
2023-05-16T09:51:38.108Z,15.400
2023-05-16T09:52:38.254Z,15.000
2023-05-16T09:53:38.426Z,15.200
2023-05-16T09:54:38.491Z,14.200
2023-05-16T09:55:40.633Z,14.100
2023-05-16T09:56:40.716Z,14.500
2023-05-16T09:57:40.797Z,16.300
2023-05-16T09:58:39.935Z,15.800
2023-05-16T09:59:40.088Z,14.800
2023-05-16T10:00:38.165Z,14.200
2023-05-16T10:01:38.359Z,13.800
2023-05-16T10:02:38.856Z,14.400
2023-05-16T10:03:38.559Z,13.800
2023-05-16T10:04:39.717Z,13.800
2023-05-16T10:05:40.772Z,14.300
2023-05-16T10:06:39.763Z,14.100
2023-05-16T10:07:40.867Z,15.000
2023-05-16T10:08:39.973Z,14.500
2023-05-16T10:09:40.130Z,13.700
2023-05-16T10:10:38.344Z,14.000
2023-05-16T10:12:37.774Z,14.600
2023-05-16T10:13:39.609Z,13.600
2023-05-16T10:14:40.733Z,13.800
2023-05-16T10:15:40.865Z,13.400
2023-05-16T10:16:40.151Z,14.700
2023-05-16T10:17:39.572Z,14.600
2023-05-16T10:18:40.560Z,16.300
2023-05-16T10:19:39.421Z,16.500
2023-05-16T10:21:37.986Z,13.200
2023-05-16T10:22:37.674Z,14.800
2023-05-16T10:23:40.799Z,14.600
2023-05-16T10:24:40.905Z,13.600
2023-05-16T10:25:40.427Z,13.400
2023-05-16T10:26:38.121Z,12.900
2023-05-16T10:27:38.181Z,13.200
2023-05-16T10:28:38.401Z,13.900
2023-05-16T10:29:55.031Z,14.100
2023-05-16T10:32:42.514Z,13.500
2023-05-16T10:33:40.861Z,13.100
2023-05-16T10:34:39.969Z,13.100
2023-05-16T10:35:38.149Z,13.200
2023-05-16T10:36:38.285Z,13.400
2023-05-16T10:37:38.345Z,12.400
2023-05-16T10:38:38.385Z,12.000
2023-05-16T10:39:38.523Z,10.800
2023-05-16T10:40:38.642Z,11.600
2023-05-16T10:41:40.734Z,10.900
2023-05-16T10:42:40.818Z,10.500
2023-05-16T10:44:39.027Z,10.000
2023-05-16T10:45:39.964Z,11.000
2023-05-16T10:46:38.280Z,9.900
2023-05-16T10:48:37.732Z,10.900
2023-05-16T10:49:40.606Z,10.800
2023-05-16T10:50:40.856Z,11.000
2023-05-16T10:51:40.825Z,10.000
2023-05-16T10:52:40.946Z,10.600
2023-05-16T10:53:40.072Z,11.300
2023-05-16T10:54:41.288Z,11.600
2023-05-16T10:55:40.176Z,10.200
2023-05-16T10:56:38.423Z,10.400
2023-05-16T10:58:39.607Z,10.400
2023-05-16T10:59:38.720Z,10.400
2023-05-16T11:00:40.864Z,11.700
2023-05-16T11:01:41.305Z,10.700
2023-05-16T11:02:38.355Z,10.600
2023-05-16T11:03:42.740Z,10.900
2023-05-16T11:04:38.246Z,11.200
2023-05-16T11:05:40.398Z,11.300
2023-05-16T11:06:38.484Z,10.500
2023-05-16T11:07:38.666Z,11.200
2023-05-16T11:08:39.736Z,12.400
2023-05-16T11:09:40.900Z,11.200
2023-05-16T11:10:41.151Z,11.200
2023-05-16T11:11:38.031Z,9.500
2023-05-16T11:12:39.178Z,10.600
2023-05-16T11:13:38.343Z,10.300
2023-05-16T11:14:38.529Z,11.000
2023-05-16T11:15:39.529Z,11.600
2023-05-16T11:16:38.908Z,10.300
2023-05-16T11:17:45.425Z,10.800
2023-05-16T11:18:38.662Z,12.100
2023-05-16T11:19:40.058Z,10.600
2023-05-16T11:20:38.190Z,11.300
2023-05-16T11:21:38.197Z,10.800
2023-05-16T11:22:39.410Z,11.000
2023-05-16T11:23:39.470Z,10.500
2023-05-16T11:24:38.169Z,10.500
2023-05-16T11:25:37.722Z,10.900
2023-05-16T11:26:39.826Z,9.600
2023-05-16T11:27:39.918Z,9.700
2023-05-16T11:28:40.098Z,9.900
2023-05-16T11:29:38.152Z,9.200
2023-05-16T11:30:38.210Z,9.000
2023-05-16T11:31:38.572Z,9.000
2023-05-16T11:32:39.865Z,9.200
2023-05-16T11:33:39.520Z,10.000
2023-05-16T11:35:40.811Z,9.300
2023-05-16T11:36:40.921Z,8.600
2023-05-16T11:37:41.255Z,8.900
2023-05-16T11:38:38.238Z,9.200
2023-05-16T11:39:38.511Z,8.800
2023-05-16T11:40:39.403Z,8.500
2023-05-16T11:41:38.468Z,9.700
2023-05-16T11:42:38.547Z,9.600
2023-05-16T11:43:39.725Z,9.600
2023-05-16T11:44:40.917Z,8.500
2023-05-16T11:45:39.840Z,9.800
2023-05-16T11:46:41.150Z,9.900
2023-05-16T11:48:45.101Z,9.300
2023-05-16T11:51:38.434Z,9.300
2023-05-16T11:52:38.623Z,8.600
2023-05-16T11:53:38.717Z,9.200
2023-05-16T11:54:40.849Z,8.600
2023-05-16T11:55:54.115Z,9.200
2023-05-16T11:57:40.174Z,10.500
2023-05-16T11:58:39.289Z,10.400
2023-05-16T11:59:38.414Z,9.600
2023-05-16T12:02:39.420Z,9.400
2023-05-16T12:03:40.190Z,10.500
2023-05-16T12:05:39.119Z,10.200
2023-05-16T12:06:37.723Z,9.700
2023-05-16T12:07:39.322Z,10.400
2023-05-16T12:08:37.870Z,9.600
2023-05-16T12:09:39.687Z,8.600
2023-05-16T12:10:38.722Z,9.600
2023-05-16T12:11:38.818Z,9.300
2023-05-16T12:12:40.955Z,10.000
2023-05-16T12:13:40.058Z,9.700
2023-05-16T12:14:38.149Z,9.500
2023-05-16T12:15:38.835Z,10.600
2023-05-16T12:16:39.727Z,9.900
2023-05-16T12:17:39.760Z,11.100
2023-05-16T12:18:42.687Z,9.600
2023-05-16T12:19:40.896Z,10.800
2023-05-16T12:20:40.781Z,9.200
2023-05-16T12:21:40.994Z,9.600
2023-05-16T12:22:40.206Z,10.100
2023-05-16T12:23:38.145Z,9.600
2023-05-16T12:24:40.576Z,9.000
2023-05-16T12:25:39.571Z,9.200
2023-05-16T12:29:38.797Z,10.200
2023-05-16T12:30:40.968Z,9.500
2023-05-16T12:31:41.051Z,9.600
2023-05-16T12:32:38.428Z,9.100
2023-05-16T12:33:39.565Z,11.100
2023-05-16T12:34:38.368Z,9.400
2023-05-16T12:35:38.531Z,9.200
2023-05-16T12:36:38.630Z,9.000
2023-05-16T12:37:38.710Z,9.600
2023-05-16T12:38:41.945Z,8.500
2023-05-16T12:39:37.804Z,8.700
2023-05-16T12:40:41.014Z,8.200
2023-05-16T12:41:38.141Z,9.000
2023-05-16T12:42:38.198Z,9.600
2023-05-16T12:43:38.342Z,10.000
2023-05-16T12:44:38.461Z,9.400
2023-05-16T12:45:40.981Z,9.700
2023-05-16T12:47:37.981Z,9.000
2023-05-16T12:48:41.011Z,8.900
2023-05-16T12:49:41.019Z,8.800
2023-05-16T12:50:41.416Z,8.500
2023-05-16T12:51:38.458Z,8.400
2023-05-16T12:53:37.767Z,7.200
2023-05-16T12:54:39.565Z,7.900
2023-05-16T12:55:38.611Z,8.500
2023-05-16T12:56:38.740Z,8.300
2023-05-16T12:57:44.849Z,8.100
2023-05-16T13:00:38.478Z,8.700
2023-05-16T13:01:38.279Z,8.300
2023-05-16T13:02:38.621Z,7.700
2023-05-16T13:03:42.079Z,9.000
2023-05-16T13:05:39.255Z,8.600
2023-05-16T13:07:37.846Z,7.900
2023-05-16T13:08:40.113Z,7.900
2023-05-16T13:09:41.070Z,7.000
2023-05-16T13:10:38.590Z,6.500
2023-05-16T13:11:38.378Z,7.500
2023-05-16T13:13:44.803Z,7.700
2023-05-16T13:14:43.160Z,7.800
2023-05-16T13:15:40.939Z,7.100
2023-05-16T13:16:41.667Z,7.600
2023-05-16T13:17:38.374Z,7.400
2023-05-16T13:18:38.208Z,7.200
2023-05-16T13:19:39.403Z,6.600
2023-05-16T13:21:38.694Z,6.300
2023-05-16T13:22:37.762Z,7.000
2023-05-16T13:23:38.842Z,6.800
2023-05-16T13:24:40.951Z,6.900
2023-05-16T13:25:41.085Z,6.200
2023-05-16T13:26:41.567Z,6.800
2023-05-16T13:27:38.039Z,6.700
2023-05-16T13:28:37.487Z,6.900
2023-05-16T13:29:38.547Z,7.400
2023-05-16T13:30:38.630Z,5.800
2023-05-16T13:31:39.545Z,6.600
2023-05-16T13:32:38.280Z,6.000
2023-05-16T13:33:37.915Z,5.900
2023-05-16T13:34:41.051Z,6.400
2023-05-16T13:35:39.485Z,5.800
2023-05-16T13:36:54.787Z,6.100
2023-05-16T13:37:38.377Z,6.700
2023-05-16T13:38:38.494Z,5.600
2023-05-16T13:39:38.689Z,5.500
2023-05-16T13:40:39.331Z,5.200
2023-05-16T13:41:37.846Z,5.600
2023-05-16T13:42:40.927Z,5.200
2023-05-16T13:43:41.057Z,5.000
2023-05-16T13:44:38.169Z,5.600
2023-05-16T13:45:38.476Z,4.800
2023-05-16T13:46:39.917Z,4.900
2023-05-16T13:47:39.671Z,5.500
2023-05-16T13:48:38.653Z,5.600
2023-05-16T13:49:38.892Z,5.800
2023-05-16T13:50:49.060Z,6.900
2023-05-16T13:51:37.929Z,6.300